Time;durP1;ratioP1;P1;durP2;ratioP2;P2;SDS_P1;SDS_P2;PMS_P1;PMS_P2;Temp;Humidity;BMP_temperature;BMP_pressure;BME280_temperature;BME280_humidity;BME280_pressure;Samples;Min_cycle;Max_cycle;Signal;HPM_P1;HPM_P2
2022/07/13 04:25:41;;;;;;;;;;;24.60;48.50;;;;;;5326503;22;19928;-78
2022/07/13 04:28:08;;;;;;;;;;;24.60;48.50;;;;;;5077717;28;19924;-78
2022/07/13 04:30:34;;;;;;;;;;;24.70;48.60;;;;;;5077422;28;19931;-78
2022/07/13 04:33:01;;;;;;;;;;;24.70;48.70;;;;;;5077569;28;19966;-78
2022/07/13 04:35:28;;;;;;;;;;;24.60;48.60;;;;;;5077187;28;19935;-77
2022/07/13 04:37:55;;;;;;;;;;;24.60;48.60;;;;;;5077528;28;19963;-77
2022/07/13 04:40:21;;;;;;;;;;;24.70;48.70;;;;;;5076329;28;19925;-77
2022/07/13 04:42:49;;;;;;;;;;;24.70;48.70;;;;;;5076156;28;20019;-76
2022/07/13 04:45:18;;;;;;;;;;;24.60;48.70;;;;;;5076110;28;20008;-76
2022/07/13 04:47:44;;;;;;;;;;;24.60;48.70;;;;;;5075811;28;20023;-77
2022/07/13 04:50:11;;;;;;;;;;;24.60;48.70;;;;;;5076200;28;19930;-77
2022/07/13 04:52:38;;;;;;;;;;;24.60;48.70;;;;;;5076381;28;19931;-77
2022/07/13 04:55:05;;;;;;;;;;;24.60;48.80;;;;;;5075991;28;19924;-77
2022/07/13 04:57:31;;;;;;;;;;;24.60;48.80;;;;;;5075938;28;19931;-77
2022/07/13 05:00:00;;;;;;;;;;;24.60;48.90;;;;;;5075906;28;19928;-77
2022/07/13 05:02:26;;;;;;;;;;;24.70;49.00;;;;;;5075965;28;19956;-77
2022/07/13 05:04:53;;;;;;;;;;;24.60;48.90;;;;;;5075808;28;19925;-77
2022/07/13 05:07:20;;;;;;;;;;;24.60;49.00;;;;;;5075886;28;19947;-77
2022/07/13 05:09:46;;;;;;;;;;;24.70;49.10;;;;;;5078131;28;19975;-81
2022/07/13 05:12:13;;;;;;;;;;;24.60;49.00;;;;;;5079857;28;20023;-81
2022/07/13 05:14:40;;;;;;;;;;;24.60;49.00;;;;;;5079852;28;20024;-81
2022/07/13 05:17:08;;;;;;;;;;;24.60;49.10;;;;;;5079654;28;19924;-81
2022/07/13 05:19:35;;;;;;;;;;;24.60;49.10;;;;;;5079559;28;20023;-81
2022/07/13 05:22:01;;;;;;;;;;;24.60;49.10;;;;;;5079195;28;20011;-81
2022/07/13 05:24:28;;;;;;;;;;;24.60;49.20;;;;;;5079192;28;20011;-80
2022/07/13 05:26:55;;;;;;;;;;;24.60;49.20;;;;;;5078845;28;20022;-80
2022/07/13 05:29:21;;;;;;;;;;;24.60;49.20;;;;;;5078929;28;20019;-80
2022/07/13 05:31:48;;;;;;;;;;;24.60;49.10;;;;;;5079107;28;19974;-80
2022/07/13 05:34:16;;;;;;;;;;;24.60;49.00;;;;;;5078764;28;19924;-81
2022/07/13 05:36:43;;;;;;;;;;;24.60;49.00;;;;;;5081827;28;19924;-80
2022/07/13 05:39:10;;;;;;;;;;;24.60;48.90;;;;;;5078000;28;20023;-80
2022/07/13 05:41:36;;;;;;;;;;;24.60;48.90;;;;;;5077839;28;20015;-78
2022/07/13 05:44:03;;;;;;;;;;;24.50;49.40;;;;;;5076079;28;20011;-80
2022/07/13 05:46:31;;;;;;;;;;;24.50;48.70;;;;;;5076691;28;20011;-81
2022/07/13 05:48:57;;;;;;;;;;;24.50;48.60;;;;;;5076638;28;19925;-81
2022/07/13 05:51:25;;;;;;;;;;;24.50;48.50;;;;;;5076894;28;20015;-81
2022/07/13 05:53:52;;;;;;;;;;;24.50;48.60;;;;;;5077175;28;20014;-80
2022/07/13 05:56:19;;;;;;;;;;;24.50;48.50;;;;;;5076746;28;19968;-81
2022/07/13 05:58:45;;;;;;;;;;;24.50;48.50;;;;;;5076854;28;19931;-81
2022/07/13 06:01:12;;;;;;;;;;;24.50;48.50;;;;;;5075966;28;20024;-80
2022/07/13 06:03:39;;;;;;;;;;;24.60;48.60;;;;;;5077185;28;20030;-80
2022/07/13 06:06:05;;;;;;;;;;;24.50;48.50;;;;;;5077428;28;20324;-80
2022/07/13 06:08:33;;;;;;;;;;;24.60;48.50;;;;;;5076739;28;19924;-80
2022/07/13 06:11:00;;;;;;;;;;;24.50;48.40;;;;;;5076357;28;19931;-80
2022/07/13 06:13:27;;;;;;;;;;;24.50;48.30;;;;;;5076384;28;19971;-80
2022/07/13 06:15:54;;;;;;;;;;;24.60;48.30;;;;;;5076281;28;20016;-80
2022/07/13 06:18:21;;;;;;;;;;;24.60;48.30;;;;;;5076420;28;19947;-80
2022/07/13 06:20:47;;;;;;;;;;;24.60;48.30;;;;;;5076732;28;19982;-80
2022/07/13 06:23:16;;;;;;;;;;;24.60;48.20;;;;;;5076107;28;20349;-80
2022/07/13 06:25:46;;;;;;;;;;;24.60;48.20;;;;;;5075987;28;19924;-80
2022/07/13 06:28:13;;;;;;;;;;;24.60;48.10;;;;;;5076029;28;20364;-80
2022/07/13 06:30:39;;;;;;;;;;;24.60;48.10;;;;;;5077011;28;19971;-80
2022/07/13 06:33:06;;;;;;;;;;;24.60;48.10;;;;;;5075968;28;20011;-80
2022/07/13 06:35:33;;;;;;;;;;;24.60;48.00;;;;;;5075925;28;19995;-80
2022/07/13 06:38:00;;;;;;;;;;;24.60;48.00;;;;;;5075490;28;20382;-80
2022/07/13 06:40:26;;;;;;;;;;;24.60;47.90;;;;;;5076070;28;19924;-80
2022/07/13 06:42:55;;;;;;;;;;;24.60;47.90;;;;;;5076124;28;20019;-80
2022/07/13 06:45:22;;;;;;;;;;;24.60;47.90;;;;;;5076073;28;19978;-80
2022/07/13 06:47:49;;;;;;;;;;;24.60;47.80;;;;;;5076170;28;19979;-80
2022/07/13 06:50:15;;;;;;;;;;;24.60;47.80;;;;;;5075881;28;20016;-80
2022/07/13 06:52:43;;;;;;;;;;;24.60;47.80;;;;;;5075995;28;20011;-80
2022/07/13 06:55:10;;;;;;;;;;;24.60;47.70;;;;;;5075882;28;19929;-80
2022/07/13 06:57:36;;;;;;;;;;;24.60;47.70;;;;;;5076348;28;20011;-80
2022/07/13 07:00:06;;;;;;;;;;;24.60;47.70;;;;;;5075572;28;19924;-80
2022/07/13 07:02:32;;;;;;;;;;;24.70;47.70;;;;;;5076254;28;19924;-80
2022/07/13 07:04:59;;;;;;;;;;;24.70;47.60;;;;;;5076401;28;19935;-80
2022/07/13 07:07:26;;;;;;;;;;;24.60;47.50;;;;;;5075688;28;20018;-80
2022/07/13 07:09:52;;;;;;;;;;;24.70;47.60;;;;;;5075635;28;19967;-80
2022/07/13 07:12:19;;;;;;;;;;;24.60;47.50;;;;;;5078516;28;20120;-80
2022/07/13 07:14:45;;;;;;;;;;;24.60;47.30;;;;;;5079845;28;19967;-80
2022/07/13 07:17:16;;;;;;;;;;;24.60;47.20;;;;;;5080037;28;19970;-80
2022/07/13 07:19:44;;;;;;;;;;;24.60;47.20;;;;;;5079126;28;19946;-80
2022/07/13 07:22:11;;;;;;;;;;;24.60;47.10;;;;;;5079888;28;20003;-80
2022/07/13 07:24:38;;;;;;;;;;;24.60;47.10;;;;;;5080270;28;19928;-80
2022/07/13 07:27:07;;;;;;;;;;;24.60;47.10;;;;;;5079638;28;20011;-80
2022/07/13 07:29:34;;;;;;;;;;;24.60;47.00;;;;;;5079792;28;20296;-80
2022/07/13 07:32:01;;;;;;;;;;;24.60;47.00;;;;;;5080414;28;20007;-80
2022/07/13 07:34:29;;;;;;;;;;;24.60;46.90;;;;;;5079895;28;19931;-80
2022/07/13 07:36:56;;;;;;;;;;;24.60;46.90;;;;;;5079244;28;20014;-80
2022/07/13 07:39:23;;;;;;;;;;;24.60;46.90;;;;;;5079784;28;20290;-81
2022/07/13 07:41:50;;;;;;;;;;;24.60;46.80;;;;;;5079482;28;19928;-82
2022/07/13 07:44:18;;;;;;;;;;;24.60;46.80;;;;;;5079877;28;19931;-82
2022/07/13 07:46:45;;;;;;;;;;;24.60;46.80;;;;;;5079573;28;19924;-81
2022/07/13 07:49:12;;;;;;;;;;;24.60;46.70;;;;;;5080781;28;19928;-80
2022/07/13 07:51:40;;;;;;;;;;;24.60;46.70;;;;;;5080491;28;20023;-80
2022/07/13 07:54:07;;;;;;;;;;;24.60;46.70;;;;;;5080560;28;20015;-80
2022/07/13 07:56:34;;;;;;;;;;;24.60;46.70;;;;;;5078581;28;20376;-80
2022/07/13 07:59:01;;;;;;;;;;;24.60;46.70;;;;;;5078578;28;19925;-80
2022/07/13 08:01:28;;;;;;;;;;;24.60;46.70;;;;;;5079513;28;20083;-80
2022/07/13 08:03:55;;;;;;;;;;;24.70;46.80;;;;;;5079294;28;19931;-83
2022/07/13 08:06:22;;;;;;;;;;;24.70;46.80;;;;;;5078724;28;19925;-80
2022/07/13 08:08:50;;;;;;;;;;;24.70;46.80;;;;;;5078052;28;19931;-80
2022/07/13 08:11:17;;;;;;;;;;;24.70;46.80;;;;;;5077714;28;20264;-82
2022/07/13 08:13:45;;;;;;;;;;;24.70;46.70;;;;;;5078645;28;20375;-82
2022/07/13 08:16:11;;;;;;;;;;;24.70;46.70;;;;;;5077931;28;20010;-80
2022/07/13 08:18:38;;;;;;;;;;;24.70;46.70;;;;;;5077942;28;20401;-81
2022/07/13 08:21:05;;;;;;;;;;;24.70;46.60;;;;;;5078670;28;19968;-81
2022/07/13 08:26:17;;;;;;;;;;;24.80;46.70;;;;;;5079078;28;20493;-80
2022/07/13 08:28:44;;;;;;;;;;;24.80;46.70;;;;;;5078979;28;20011;-80
2022/07/13 08:31:12;;;;;;;;;;;24.70;46.60;;;;;;5078873;28;19950;-80
2022/07/13 08:39:07;;;;;;;;;;;24.80;46.70;;;;;;5078789;28;20373;-81
2022/07/13 08:41:35;;;;;;;;;;;24.80;46.70;;;;;;5078310;28;19995;-82
2022/07/13 08:44:02;;;;;;;;;;;24.80;46.70;;;;;;5078740;28;19960;-85
2022/07/13 08:46:29;;;;;;;;;;;24.80;46.70;;;;;;5078468;28;19987;-80
2022/07/13 08:48:56;;;;;;;;;;;24.90;46.80;;;;;;5078340;28;19963;-81
2022/07/13 08:51:24;;;;;;;;;;;24.80;46.60;;;;;;5077697;28;20011;-80
2022/07/13 08:53:52;;;;;;;;;;;24.90;46.70;;;;;;5077310;28;20360;-80
2022/07/13 08:56:19;;;;;;;;;;;24.90;46.70;;;;;;5077671;28;19924;-80
2022/07/13 08:58:47;;;;;;;;;;;24.90;46.70;;;;;;5078027;28;19931;-80
2022/07/13 09:01:14;;;;;;;;;;;24.80;46.50;;;;;;5077549;28;20018;-80
2022/07/13 09:03:42;;;;;;;;;;;24.90;46.60;;;;;;5077536;28;20016;-80
2022/07/13 09:06:09;;;;;;;;;;;24.80;46.50;;;;;;5077205;28;20384;-80
2022/07/13 09:08:42;;;;;;;;;;;24.80;46.50;;;;;;5076920;28;19931;-80
2022/07/13 09:11:09;;;;;;;;;;;24.90;46.50;;;;;;5076897;28;20008;-80
2022/07/13 09:13:38;;;;;;;;;;;24.90;46.40;;;;;;5077464;28;20300;-81
2022/07/13 09:16:19;;;;;;;;;;;24.80;46.30;;;;;;5076639;28;19931;-81
2022/07/13 09:18:47;;;;;;;;;;;24.80;46.30;;;;;;5077048;28;19931;-81
2022/07/13 09:21:14;;;;;;;;;;;24.80;46.30;;;;;;5077357;28;19928;-81
2022/07/13 09:23:43;;;;;;;;;;;24.80;46.30;;;;;;5076904;28;19929;-81
2022/07/13 09:26:10;;;;;;;;;;;24.80;46.20;;;;;;5076652;28;19924;-80
2022/07/13 09:28:44;;;;;;;;;;;24.80;46.20;;;;;;5076485;28;19924;-81
2022/07/13 09:31:11;;;;;;;;;;;24.90;46.20;;;;;;5076919;28;19924;-81
2022/07/13 09:33:40;;;;;;;;;;;24.90;46.20;;;;;;5076744;28;20015;-81
2022/07/13 09:36:09;;;;;;;;;;;24.90;46.20;;;;;;5075672;28;20352;-81
2022/07/13 09:38:36;;;;;;;;;;;24.80;46.10;;;;;;5076991;28;20006;-80
2022/07/13 09:41:16;;;;;;;;;;;24.90;46.20;;;;;;5076343;28;19932;-80
2022/07/13 09:46:37;;;;;;;;;;;24.90;46.20;;;;;;5076928;28;19927;-80
2022/07/13 09:49:05;;;;;;;;;;;24.80;46.70;;;;;;5076366;28;20019;-80
2022/07/13 10:17:55;;;;;;;;;;;24.90;46.20;;;;;;3383435;26;19931;-79
2022/07/13 10:20:22;;;;;;;;;;;24.90;46.20;;;;;;5076760;28;19968;-79
2022/07/13 10:22:49;;;;;;;;;;;24.90;46.20;;;;;;5076413;28;19924;-78
2022/07/13 10:25:16;;;;;;;;;;;24.90;46.20;;;;;;5076093;28;20015;-79
2022/07/13 10:27:43;;;;;;;;;;;24.90;46.20;;;;;;5076541;28;20352;-79
2022/07/13 10:30:11;;;;;;;;;;;24.90;46.20;;;;;;5076346;28;20023;-79
2022/07/13 10:32:38;;;;;;;;;;;24.90;46.20;;;;;;5076498;28;20015;-82
2022/07/13 10:35:09;;;;;;;;;;;24.90;46.20;;;;;;5076271;28;20445;-81
2022/07/13 10:37:54;;;;;;;;;;;24.90;46.20;;;;;;5075862;28;20376;-81
2022/07/13 10:40:21;;;;;;;;;;;24.90;46.20;;;;;;5074830;28;19950;-81
2022/07/13 10:43:06;;;;;;;;;;;24.90;46.20;;;;;;5074794;28;20326;-81
2022/07/13 10:45:40;;;;;;;;;;;24.90;46.20;;;;;;5074060;28;20015;-80
2022/07/13 10:48:07;;;;;;;;;;;24.90;46.20;;;;;;5074979;28;19925;-78
2022/07/13 10:50:44;;;;;;;;;;;24.90;46.20;;;;;;5074742;28;20019;-78
2022/07/13 10:53:11;;;;;;;;;;;24.90;46.20;;;;;;5083283;28;20354;-76
2022/07/13 10:55:45;;;;;;;;;;;24.90;46.10;;;;;;5075679;28;19924;-77
2022/07/13 10:58:32;;;;;;;;;;;24.90;46.00;;;;;;5075214;28;20393;-79
2022/07/13 11:00:59;;;;;;;;;;;24.90;46.00;;;;;;5075107;28;19930;-78
2022/07/13 11:03:31;;;;;;;;;;;24.90;45.80;;;;;;5074954;28;19974;-78
2022/07/13 11:06:06;;;;;;;;;;;24.90;45.70;;;;;;5075859;28;19925;-78
2022/07/13 11:08:32;;;;;;;;;;;24.90;45.70;;;;;;5075750;28;19925;-78
2022/07/13 11:11:12;;;;;;;;;;;24.90;45.60;;;;;;5075142;28;20011;-78
2022/07/13 11:13:39;;;;;;;;;;;24.90;45.50;;;;;;5074732;28;19924;-78
2022/07/13 11:16:07;;;;;;;;;;;24.90;45.50;;;;;;5074473;28;20307;-78
2022/07/13 11:18:35;;;;;;;;;;;24.90;45.40;;;;;;5074409;28;19924;-79
2022/07/13 11:21:03;;;;;;;;;;;24.90;45.40;;;;;;5075047;28;19925;-78
2022/07/13 11:26:24;;;;;;;;;;;24.90;45.20;;;;;;5075082;28;19931;-79
2022/07/13 11:28:55;;;;;;;;;;;24.90;45.10;;;;;;5074874;28;20001;-79
2022/07/13 11:31:22;;;;;;;;;;;24.90;45.10;;;;;;5075030;28;20011;-79
2022/07/13 11:33:49;;;;;;;;;;;24.90;45.10;;;;;;5074446;28;19928;-79
2022/07/13 11:36:19;;;;;;;;;;;24.90;45.00;;;;;;5074799;28;19925;-79
2022/07/13 11:38:47;;;;;;;;;;;24.90;45.00;;;;;;5074971;28;20346;-79
2022/07/13 11:41:18;;;;;;;;;;;24.90;44.90;;;;;;5074286;28;19924;-79
2022/07/13 11:43:48;;;;;;;;;;;25.00;45.00;;;;;;5074214;28;19948;-79
2022/07/13 11:46:21;;;;;;;;;;;25.00;45.00;;;;;;5074168;28;20015;-79
2022/07/13 11:48:47;;;;;;;;;;;25.00;44.90;;;;;;5074409;28;20015;-79
2022/07/13 11:51:15;;;;;;;;;;;25.00;44.90;;;;;;5075780;28;20023;-83
2022/07/13 11:53:41;;;;;;;;;;;25.00;44.90;;;;;;5076261;28;20294;-79
2022/07/13 11:56:09;;;;;;;;;;;25.00;44.90;;;;;;5075092;28;20314;-79
2022/07/13 11:58:39;;;;;;;;;;;25.00;44.90;;;;;;5076911;28;20008;-79
2022/07/13 12:01:12;;;;;;;;;;;25.00;44.90;;;;;;5079141;28;19928;-80
2022/07/13 12:03:39;;;;;;;;;;;25.10;44.90;;;;;;5078589;28;19987;-78
2022/07/13 12:06:07;;;;;;;;;;;25.10;44.90;;;;;;5077596;28;19995;-78
2022/07/13 12:08:34;;;;;;;;;;;25.10;44.90;;;;;;5077521;28;19947;-78
2022/07/13 12:11:02;;;;;;;;;;;25.10;44.80;;;;;;5077831;28;19950;-79
2022/07/13 12:13:30;;;;;;;;;;;25.10;44.80;;;;;;5077827;28;20014;-78
2022/07/13 12:15:57;;;;;;;;;;;25.10;44.80;;;;;;5078677;28;20279;-78
2022/07/13 12:18:24;;;;;;;;;;;25.10;44.70;;;;;;5077276;28;19924;-78
2022/07/13 12:20:50;;;;;;;;;;;25.10;44.70;;;;;;5077588;28;19931;-78
2022/07/13 12:23:18;;;;;;;;;;;25.10;45.30;;;;;;5077094;28;20474;-78
2022/07/13 12:25:47;;;;;;;;;;;25.10;44.60;;;;;;5077163;28;20288;-78
2022/07/13 12:28:13;;;;;;;;;;;25.10;44.60;;;;;;5079054;28;19928;-79
2022/07/13 12:33:42;;;;;;;;;;;25.10;44.50;;;;;;5155001;27;19949;-76
2022/07/13 12:36:10;;;;;;;;;;;25.10;44.50;;;;;;5152672;27;19965;-76
2022/07/13 12:38:36;;;;;;;;;;;25.10;44.40;;;;;;5153126;27;19923;-77
2022/07/13 12:41:03;;;;;;;;;;;25.10;44.40;;;;;;5153123;27;20009;-77
2022/07/13 12:43:32;;;;;;;;;;;25.10;44.30;;;;;;5153086;27;20021;-77
2022/07/13 12:45:59;;;;;;;;;;;25.10;44.30;;;;;;5152957;27;19931;-77
2022/07/13 12:48:27;;;;;;;;;;;25.10;44.30;;;;;;5152978;27;19931;-77
2022/07/13 12:50:59;;;;;;;;;;;25.10;44.30;;;;;;5152610;27;20271;-77
2022/07/13 12:53:26;;;;;;;;;;;25.10;44.20;;;;;;5152794;27;19973;-76
2022/07/13 12:55:53;;;;;;;;;;;25.10;44.20;;;;;;5152874;27;19923;-77
2022/07/13 12:58:20;;;;;;;;;;;25.10;44.20;;;;;;5152831;27;19923;-77
2022/07/13 13:00:47;;;;;;;;;;;25.10;44.20;;;;;;5153342;27;19923;-76
2022/07/13 13:03:13;;;;;;;;;;;25.20;44.20;;;;;;5152678;27;19923;-76
2022/07/13 13:05:41;;;;;;;;;;;25.10;44.10;;;;;;5152167;27;20302;-76
2022/07/13 13:08:09;;;;;;;;;;;25.20;44.10;;;;;;5153450;27;19992;-77
2022/07/13 13:10:36;;;;;;;;;;;25.20;44.00;;;;;;5153105;27;19929;-77
2022/07/13 13:13:03;;;;;;;;;;;25.20;44.00;;;;;;5153292;27;19930;-76
2022/07/13 13:15:29;;;;;;;;;;;25.20;44.00;;;;;;5153155;27;20030;-77
2022/07/13 13:17:56;;;;;;;;;;;25.20;44.00;;;;;;5152761;27;20033;-77
2022/07/13 13:20:23;;;;;;;;;;;25.20;43.90;;;;;;5152844;27;19929;-77
2022/07/13 13:22:49;;;;;;;;;;;25.20;44.50;;;;;;5153018;27;20026;-77
2022/07/13 13:25:17;;;;;;;;;;;25.30;44.00;;;;;;5152699;27;19962;-78
2022/07/13 13:27:44;;;;;;;;;;;25.30;44.00;;;;;;5152124;27;20470;-77
2022/07/13 13:32:55;;;;;;;;;;;25.30;44.00;;;;;;5151934;27;19935;-77
2022/07/13 13:35:22;;;;;;;;;;;25.30;43.90;;;;;;5152251;27;19977;-77
2022/07/13 13:37:49;;;;;;;;;;;25.30;43.90;;;;;;5152736;27;20010;-77
2022/07/13 13:40:17;;;;;;;;;;;25.30;43.80;;;;;;5151877;27;20405;-77
2022/07/13 13:42:44;;;;;;;;;;;25.30;43.80;;;;;;5151443;27;20026;-79
2022/07/13 13:45:11;;;;;;;;;;;25.30;43.70;;;;;;5137960;27;19981;-80
2022/07/13 13:47:38;;;;;;;;;;;25.30;43.70;;;;;;5141299;27;19924;-77
2022/07/13 13:50:05;;;;;;;;;;;25.30;43.60;;;;;;5139632;27;19923;-78
2022/07/13 13:52:32;;;;;;;;;;;25.30;43.60;;;;;;5139706;27;19924;-78
2022/07/13 13:54:58;;;;;;;;;;;25.30;43.60;;;;;;5138919;27;20018;-78
2022/07/13 13:57:26;;;;;;;;;;;25.30;43.50;;;;;;5140743;27;20411;-78
2022/07/13 13:59:53;;;;;;;;;;;25.30;43.50;;;;;;5140060;27;20437;-77
2022/07/13 14:02:20;;;;;;;;;;;25.30;43.40;;;;;;5140092;27;19959;-77
2022/07/13 14:04:46;;;;;;;;;;;25.30;43.40;;;;;;5139609;27;20023;-77
2022/07/13 14:07:13;;;;;;;;;;;25.30;43.30;;;;;;5138718;27;20010;-77
2022/07/13 14:09:40;;;;;;;;;;;25.30;43.30;;;;;;5139068;27;19955;-77
2022/07/13 14:12:07;;;;;;;;;;;25.30;43.20;;;;;;5140184;27;19927;-78
2022/07/13 14:14:35;;;;;;;;;;;25.30;43.20;;;;;;5141552;27;19962;-78
2022/07/13 14:17:03;;;;;;;;;;;25.30;43.20;;;;;;5140051;27;19980;-78
2022/07/13 14:19:30;;;;;;;;;;;25.30;43.10;;;;;;5143073;27;20290;-80
2022/07/13 14:21:56;;;;;;;;;;;25.30;43.10;;;;;;5143013;27;19965;-81
2022/07/13 14:24:24;;;;;;;;;;;25.30;43.10;;;;;;5144058;27;19988;-80
2022/07/13 14:26:51;;;;;;;;;;;25.30;43.10;;;;;;5144166;27;19923;-79
2022/07/13 14:29:17;;;;;;;;;;;25.30;43.00;;;;;;5140226;27;19930;-79
2022/07/13 14:31:45;;;;;;;;;;;25.30;43.00;;;;;;5140059;27;20018;-78
2022/07/13 14:34:13;;;;;;;;;;;25.30;43.00;;;;;;5139434;27;19930;-78
2022/07/13 14:36:40;;;;;;;;;;;25.30;43.00;;;;;;5139527;27;19930;-78
2022/07/13 14:39:06;;;;;;;;;;;25.30;43.00;;;;;;5140995;27;20006;-79
2022/07/13 14:41:33;;;;;;;;;;;25.30;43.00;;;;;;5141274;27;20026;-79
2022/07/13 14:43:59;;;;;;;;;;;25.30;43.00;;;;;;5140633;27;20002;-78
2022/07/13 14:46:26;;;;;;;;;;;25.30;42.90;;;;;;5140655;27;19966;-78
2022/07/13 14:48:54;;;;;;;;;;;25.30;42.90;;;;;;5140152;27;19924;-78
2022/07/13 14:51:21;;;;;;;;;;;25.30;42.90;;;;;;5139329;27;20018;-78
2022/07/13 14:53:48;;;;;;;;;;;25.30;42.90;;;;;;5139207;27;20358;-78
2022/07/13 14:56:15;;;;;;;;;;;25.30;42.90;;;;;;5137690;27;20454;-78
2022/07/13 14:58:42;;;;;;;;;;;25.30;42.90;;;;;;5138452;27;19968;-78
2022/07/13 15:01:09;;;;;;;;;;;25.30;42.80;;;;;;5138857;27;19969;-78
2022/07/13 15:03:36;;;;;;;;;;;25.30;42.80;;;;;;5138232;27;19963;-78
2022/07/13 15:06:04;;;;;;;;;;;25.30;42.80;;;;;;5138035;27;19924;-78
2022/07/13 15:08:31;;;;;;;;;;;25.30;42.80;;;;;;5137829;27;19923;-78
2022/07/13 15:10:58;;;;;;;;;;;25.30;42.80;;;;;;5139882;27;19923;-80
2022/07/13 15:13:25;;;;;;;;;;;25.30;42.80;;;;;;5139618;27;20267;-78
2022/07/13 15:15:52;;;;;;;;;;;25.30;42.80;;;;;;5136872;27;19924;-78
2022/07/13 15:18:19;;;;;;;;;;;25.30;42.80;;;;;;5136231;27;19974;-77
2022/07/13 15:20:46;;;;;;;;;;;25.30;42.80;;;;;;5135986;27;19977;-77
2022/07/13 15:23:14;;;;;;;;;;;25.30;42.80;;;;;;5136106;27;19924;-78
2022/07/13 15:25:40;;;;;;;;;;;25.30;42.80;;;;;;5136060;27;20027;-78
2022/07/13 15:28:07;;;;;;;;;;;25.30;42.80;;;;;;5136035;27;20013;-78
2022/07/13 15:30:35;;;;;;;;;;;25.30;42.80;;;;;;5135950;27;19966;-78
2022/07/13 15:33:02;;;;;;;;;;;25.30;42.80;;;;;;5135483;27;20023;-78
2022/07/13 15:35:28;;;;;;;;;;;25.30;42.80;;;;;;5135845;27;20030;-77
2022/07/13 15:37:55;;;;;;;;;;;25.30;42.70;;;;;;5135881;27;19930;-77
2022/07/13 15:41:22;;;;;;;;;;;25.30;42.70;;;;;;5135793;27;19927;-77
2022/07/13 15:43:11;;;;;;;;;;;25.30;42.70;;;;;;5135462;27;20345;-77
2022/07/13 15:45:37;;;;;;;;;;;25.20;42.60;;;;;;5139322;27;19927;-81
2022/07/13 15:48:05;;;;;;;;;;;25.20;42.60;;;;;;5143386;27;20320;-81
2022/07/13 15:50:32;;;;;;;;;;;25.20;42.60;;;;;;5141957;27;19945;-80
2022/07/13 15:52:58;;;;;;;;;;;25.20;42.60;;;;;;5142654;27;19983;-81
2022/07/13 15:55:26;;;;;;;;;;;25.20;42.60;;;;;;5141491;27;19955;-81
2022/07/13 15:57:53;;;;;;;;;;;25.30;42.60;;;;;;5140377;27;20017;-81
2022/07/13 16:00:21;;;;;;;;;;;25.30;42.60;;;;;;5141396;27;19924;-81
2022/07/13 16:02:47;;;;;;;;;;;25.20;42.50;;;;;;5142608;27;19930;-81
2022/07/13 16:05:14;;;;;;;;;;;25.20;42.50;;;;;;5140774;27;20009;-81
2022/07/13 16:07:41;;;;;;;;;;;25.20;42.50;;;;;;5140816;27;20003;-82
2022/07/13 16:10:08;;;;;;;;;;;25.20;42.50;;;;;;5140138;27;20014;-81
2022/07/13 16:12:36;;;;;;;;;;;25.20;42.50;;;;;;5140688;27;19985;-81
2022/07/13 16:15:03;;;;;;;;;;;25.20;42.50;;;;;;5139286;27;20454;-81
2022/07/13 16:17:30;;;;;;;;;;;25.20;42.50;;;;;;5138380;27;20010;-81
2022/07/13 16:19:57;;;;;;;;;;;25.20;42.50;;;;;;5136255;27;19927;-81
2022/07/13 16:22:24;;;;;;;;;;;25.20;42.50;;;;;;5135888;27;20290;-80
2022/07/13 16:24:50;;;;;;;;;;;25.20;42.50;;;;;;5135723;27;20340;-80
2022/07/13 16:27:17;;;;;;;;;;;25.20;42.50;;;;;;5135755;27;20023;-80
2022/07/13 16:29:45;;;;;;;;;;;25.20;42.50;;;;;;5135676;27;20007;-79
2022/07/13 16:32:12;;;;;;;;;;;25.20;42.50;;;;;;5135626;27;19923;-82
2022/07/13 16:34:38;;;;;;;;;;;25.20;42.50;;;;;;5135269;27;20351;-83
2022/07/13 16:37:05;;;;;;;;;;;25.20;42.50;;;;;;5135021;27;20357;-82
2022/07/13 16:39:32;;;;;;;;;;;25.20;42.50;;;;;;5135347;27;19923;-79
2022/07/13 16:41:58;;;;;;;;;;;25.20;42.60;;;;;;5135132;27;19930;-79
2022/07/13 16:44:25;;;;;;;;;;;25.20;42.60;;;;;;5135264;27;20014;-80
2022/07/13 16:46:53;;;;;;;;;;;25.20;42.60;;;;;;5135933;27;20046;-81
2022/07/13 16:49:19;;;;;;;;;;;25.20;42.60;;;;;;5135537;27;19930;-82
2022/07/13 16:51:46;;;;;;;;;;;25.20;42.70;;;;;;5135103;27;20018;-82
2022/07/13 16:54:13;;;;;;;;;;;25.20;42.70;;;;;;5134913;27;19970;-83
2022/07/13 16:56:40;;;;;;;;;;;25.20;42.70;;;;;;5135199;27;19928;-82
2022/07/13 16:59:07;;;;;;;;;;;25.20;42.70;;;;;;5135125;27;19928;-82
2022/07/13 17:01:34;;;;;;;;;;;25.20;42.70;;;;;;5135291;27;20018;-82
2022/07/13 17:04:03;;;;;;;;;;;25.20;42.70;;;;;;5135238;27;20014;-82
2022/07/13 17:06:30;;;;;;;;;;;25.20;42.70;;;;;;5135171;27;19984;-82
2022/07/13 17:08:57;;;;;;;;;;;25.20;42.70;;;;;;5135293;27;20020;-82
2022/07/13 17:11:24;;;;;;;;;;;25.20;42.80;;;;;;5134977;27;19929;-80
2022/07/13 17:13:51;;;;;;;;;;;25.20;42.80;;;;;;5134432;27;19949;-84
2022/07/13 17:16:20;;;;;;;;;;;25.20;42.80;;;;;;5134653;27;20014;-81
2022/07/13 17:18:58;;;;;;;;;;;25.20;42.80;;;;;;5136017;27;19945;-81
2022/07/13 17:21:26;;;;;;;;;;;25.20;42.80;;;;;;5139102;27;19975;-82
2022/07/13 17:23:54;;;;;;;;;;;25.20;42.80;;;;;;5139970;27;20010;-82
2022/07/13 17:26:21;;;;;;;;;;;25.20;42.80;;;;;;5139338;27;19924;-78
2022/07/13 17:28:48;;;;;;;;;;;25.10;42.80;;;;;;5139476;27;19923;-81
2022/07/13 17:31:15;;;;;;;;;;;25.20;42.80;;;;;;5140419;27;20018;-84
2022/07/13 17:33:42;;;;;;;;;;;25.20;42.90;;;;;;5141574;27;20006;-85
2022/07/13 17:36:09;;;;;;;;;;;25.20;42.80;;;;;;5139898;27;20425;-79
2022/07/13 17:38:37;;;;;;;;;;;25.20;42.80;;;;;;5141516;27;19930;-79
2022/07/13 17:41:03;;;;;;;;;;;25.10;42.80;;;;;;5145007;27;20018;-81
2022/07/13 17:43:30;;;;;;;;;;;25.20;42.90;;;;;;5143693;27;19963;-81
2022/07/13 17:45:57;;;;;;;;;;;25.10;42.80;;;;;;5142849;27;20014;-81
2022/07/13 17:48:23;;;;;;;;;;;25.20;42.90;;;;;;5145029;27;19991;-81
2022/07/13 17:50:50;;;;;;;;;;;25.10;42.80;;;;;;5142919;27;19989;-81
2022/07/13 17:53:17;;;;;;;;;;;25.20;42.90;;;;;;5143894;27;19974;-81
2022/07/13 17:55:45;;;;;;;;;;;25.10;42.90;;;;;;5143376;27;20006;-81
2022/07/13 17:58:11;;;;;;;;;;;25.10;42.90;;;;;;5141702;27;20010;-79
2022/07/13 18:00:38;;;;;;;;;;;25.20;42.90;;;;;;5141671;27;19971;-79
2022/07/13 18:03:05;;;;;;;;;;;25.10;42.90;;;;;;5142344;27;20010;-80
2022/07/13 18:05:32;;;;;;;;;;;25.10;42.90;;;;;;5142972;27;20294;-80
2022/07/13 18:07:59;;;;;;;;;;;25.10;42.90;;;;;;5143708;27;20018;-80
2022/07/13 18:10:25;;;;;;;;;;;25.10;42.90;;;;;;5143086;27;20414;-81
2022/07/13 18:12:53;;;;;;;;;;;25.10;42.80;;;;;;5143105;27;20330;-80
2022/07/13 18:15:21;;;;;;;;;;;25.10;42.80;;;;;;5143237;27;20010;-81
2022/07/13 18:17:47;;;;;;;;;;;25.10;42.90;;;;;;5143584;27;19931;-81
2022/07/13 18:20:14;;;;;;;;;;;25.10;42.80;;;;;;5143384;27;20008;-81
2022/07/13 18:22:40;;;;;;;;;;;25.10;42.90;;;;;;5143175;27;20018;-81
2022/07/13 18:25:08;;;;;;;;;;;25.10;42.90;;;;;;5143124;27;19927;-81
2022/07/13 18:27:35;;;;;;;;;;;25.10;42.90;;;;;;5143529;27;19946;-81
2022/07/13 18:30:04;;;;;;;;;;;25.10;42.90;;;;;;5143090;27;20438;-81
2022/07/13 18:32:31;;;;;;;;;;;25.10;42.90;;;;;;5142708;27;20381;-81
2022/07/13 18:34:58;;;;;;;;;;;25.10;42.90;;;;;;5141631;27;19923;-81
2022/07/13 18:37:25;;;;;;;;;;;25.10;42.90;;;;;;5141555;27;19974;-81
2022/07/13 18:39:51;;;;;;;;;;;25.10;42.90;;;;;;5141785;27;19959;-81
2022/07/13 18:42:18;;;;;;;;;;;25.10;42.90;;;;;;5142555;27;20026;-81
2022/07/13 18:44:45;;;;;;;;;;;25.10;42.90;;;;;;5142741;27;20384;-81
2022/07/13 18:47:13;;;;;;;;;;;25.10;42.90;;;;;;5144925;27;20366;-81
2022/07/13 18:49:39;;;;;;;;;;;25.10;42.90;;;;;;5141825;27;20022;-81
2022/07/13 18:52:06;;;;;;;;;;;25.10;42.90;;;;;;5143872;27;19958;-79
2022/07/13 18:54:33;;;;;;;;;;;25.10;42.90;;;;;;5143177;27;19928;-79
2022/07/13 18:57:00;;;;;;;;;;;25.10;42.90;;;;;;5145284;27;19986;-79
2022/07/13 18:59:26;;;;;;;;;;;25.10;43.00;;;;;;5143081;27;20006;-80
2022/07/13 19:01:53;;;;;;;;;;;25.10;42.90;;;;;;5143082;27;19927;-80
2022/07/13 19:04:21;;;;;;;;;;;25.10;42.90;;;;;;5139838;27;20006;-81
2022/07/13 19:06:48;;;;;;;;;;;25.10;43.00;;;;;;5140015;27;20074;-81
2022/07/13 19:09:14;;;;;;;;;;;25.10;43.00;;;;;;5140001;27;20011;-81
2022/07/13 19:11:41;;;;;;;;;;;25.10;43.00;;;;;;5139665;27;20413;-83
2022/07/13 19:14:07;;;;;;;;;;;25.10;43.00;;;;;;5139093;27;20466;-83
2022/07/13 19:16:34;;;;;;;;;;;25.10;43.00;;;;;;5139492;27;20357;-82
2022/07/13 19:19:01;;;;;;;;;;;25.10;43.00;;;;;;5140229;27;19924;-82
2022/07/13 19:21:29;;;;;;;;;;;25.10;43.10;;;;;;5141614;27;19924;-81
2022/07/13 19:23:56;;;;;;;;;;;25.10;43.10;;;;;;5143482;27;20425;-81
2022/07/13 19:29:07;;;;;;;;;;;25.10;43.30;;;;;;5149447;27;19926;-82
2022/07/13 19:31:35;;;;;;;;;;;25.10;43.40;;;;;;5142942;27;19970;-82